Ceylon — 9VMU6 — position and weather

sailwx.info

Track history (hours):
 
Tides and Currents Weather Stations Pressure Air Temp Water Temp Dewpoint Dewpoint Depression Visibility Wind Speed Wind Dir Waves Ship Positions

Ceylon

Last reported at 2016-Feb-07 08:22 UTC. Time now 2016-Apr-28 19:47 UTC.
Position S 13°10' W 038°28'.
Warning: this ship's position is months out of date.

Length 180 m; draft 9.1 m.

Type: Tanker. MMSI: 563847000.

Date/timePositionNaut miles runAvg speedWind from/ knotsBaromVisibWave heightAir tempDewpointWater temp
2016-Feb-07 08:22S 13°10' W 038°28'1010.1
2016-Feb-07 07:25S 13°01' W 038°34'910.0
2016-Feb-07 06:33S 12°53' W 038°34'9 8.2
2016-Feb-07 05:31S 12°45' W 038°37'0 0.0
2016-Feb-06 16:33S 12°45' W 038°38'6 6.3
2016-Feb-06 15:33S 12°50' W 038°34'7 7.0
2016-Feb-06 14:31S 12°57' W 038°32'0 0.0
2016-Feb-06 13:31S 12°57' W 038°32'0 0.1
2016-Feb-06 12:31S 12°57' W 038°32'0 0.1
2016-Feb-06 11:25S 12°58' W 038°32'0 0.1
2016-Feb-06 10:31S 12°58' W 038°32'0 0.0
2016-Feb-06 09:34S 12°58' W 038°32'0 0.0
2016-Feb-06 08:32S 12°58' W 038°32'0 0.0
2016-Feb-06 07:32S 12°58' W 038°32'0 0.0
2016-Feb-06 06:32S 12°58' W 038°32'0 0.1
2016-Feb-06 05:32S 12°57' W 038°32'0 0.1
2016-Feb-06 04:32S 12°57' W 038°32'0 0.0
2016-Feb-06 03:32S 12°57' W 038°32'0 0.0
2016-Feb-06 02:32S 12°57' W 038°32'0 0.0
2016-Feb-06 01:32S 12°57' W 038°32'0 0.0
2016-Feb-06 00:32S 12°57' W 038°32'0 0.1
2016-Feb-05 23:29S 12°57' W 038°32'0 0.1
2016-Feb-05 22:32S 12°58' W 038°32'0 0.0
2016-Feb-05 21:32S 12°58' W 038°32'0 0.0
2016-Feb-05 20:32S 12°58' W 038°32'0 0.0
2016-Feb-05 19:32S 12°58' W 038°32'0 0.1
2016-Feb-05 18:32S 12°58' W 038°32'0 0.1
2016-Feb-05 16:32S 12°57' W 038°32'0 0.1
2016-Feb-05 15:32S 12°57' W 038°32'0 0.0
2016-Feb-05 14:32S 12°57' W 038°32'0 0.0
2016-Feb-05 13:32S 12°57' W 038°32'0 0.1
2016-Feb-05 12:29S 12°57' W 038°32'0 0.1
2016-Feb-05 11:32S 12°58' W 038°32'0 0.1
2016-Feb-05 10:32S 12°58' W 038°32'5 4.7
2016-Feb-05 09:33S 12°53' W 038°32'6 6.5
2016-Feb-05 08:33S 12°47' W 038°30'0 0.0
2016-Feb-05 07:31S 12°47' W 038°30'0 0.0
2016-Feb-05 06:31S 12°47' W 038°30'0 0.0
2016-Feb-05 05:31S 12°47' W 038°30'0 0.0
2016-Feb-05 04:31S 12°47' W 038°30'0 0.0
2016-Feb-05 03:31S 12°47' W 038°30'0 0.0
2016-Feb-05 02:31S 12°47' W 038°30'0 0.0
2016-Feb-05 01:31S 12°47' W 038°30'0 0.0
2016-Feb-05 00:31S 12°47' W 038°30'0 0.0
2016-Feb-04 23:31S 12°47' W 038°30'0 0.0
2016-Feb-04 22:31S 12°47' W 038°30'0 0.0
2016-Feb-04 21:31S 12°47' W 038°30'0 0.0
2016-Feb-04 20:31S 12°47' W 038°30'0 0.0
2016-Feb-04 19:31S 12°47' W 038°30'0 0.0
2016-Feb-04 18:31S 12°47' W 038°30'0 0.0
2016-Feb-04 17:31S 12°47' W 038°30'0 0.0
2016-Feb-04 16:31S 12°47' W 038°30'0 0.0
2016-Feb-04 15:04S 12°47' W 038°30'0 0.0
2016-Feb-04 14:28S 12°47' W 038°30'0 0.0
2016-Feb-04 13:31S 12°47' W 038°30'0 0.0
2016-Feb-04 12:19S 12°47' W 038°30'0 0.0
2016-Feb-04 11:31S 12°47' W 038°30'0 0.0
2016-Feb-04 10:31S 12°47' W 038°30'0 0.0
2016-Feb-04 09:31S 12°47' W 038°30'0 0.0
2016-Feb-04 08:31S 12°47' W 038°30'0 0.0
2016-Feb-04 07:31S 12°47' W 038°30'0 0.0
2016-Feb-04 06:31S 12°47' W 038°30'0 0.0
2016-Feb-04 05:31S 12°47' W 038°30'0 0.0
2016-Feb-04 03:31S 12°47' W 038°30'0 0.0
2016-Feb-04 02:31S 12°47' W 038°30'0 0.0
2016-Feb-04 01:31S 12°47' W 038°30'0 0.0
2016-Feb-04 00:31S 12°47' W 038°30'0 0.0
2016-Feb-03 23:31S 12°47' W 038°30'0 0.0
2016-Feb-03 22:31S 12°47' W 038°30'0 0.0
2016-Feb-03 21:31S 12°47' W 038°30'0 0.0
2016-Feb-03 20:22S 12°47' W 038°30'0 0.0
2016-Feb-03 19:31S 12°47' W 038°30'0 0.0
2016-Feb-03 18:31S 12°47' W 038°30'0 0.0
2016-Feb-03 17:31S 12°47' W 038°30'0 0.0
2016-Feb-03 16:31S 12°47' W 038°30'0 0.0
2016-Feb-03 15:16S 12°47' W 038°30'0 0.0
2016-Feb-03 14:31S 12°47' W 038°30'0 0.0
2016-Feb-03 13:31S 12°47' W 038°30'0 0.0
2016-Feb-03 12:33S 12°47' W 038°30'9 8.3
2016-Feb-03 11:27S 12°56' W 038°33'0 0.4
2016-Feb-03 10:31S 12°56' W 038°33'0 0.1
2016-Feb-03 09:31S 12°56' W 038°33'0 0.0
2016-Feb-03 08:31S 12°56' W 038°33'0 0.0
2016-Feb-03 07:31S 12°56' W 038°33'0 0.0
2016-Feb-03 06:31S 12°56' W 038°33'0 0.0
2016-Feb-03 05:28S 12°56' W 038°33'0 0.0
2016-Feb-03 04:31S 12°56' W 038°33'0 0.1
2016-Feb-03 03:31S 12°56' W 038°33'0 0.1
2016-Feb-03 02:28S 12°56' W 038°33'0 0.1
2016-Feb-03 01:31S 12°56' W 038°33'0 0.0
2016-Feb-03 00:31S 12°56' W 038°33'0 0.0
2016-Feb-02 23:31S 12°56' W 038°33'0 0.0
2016-Feb-02 22:34S 12°56' W 038°33'0 0.0
2016-Feb-02 21:31S 12°56' W 038°33'0 0.0
2016-Feb-02 20:31S 12°56' W 038°33'0 0.0
2016-Feb-02 18:25S 12°56' W 038°33'0 0.1
2016-Feb-02 17:31S 12°56' W 038°33'0 0.0
2016-Feb-02 16:33S 12°56' W 038°33'0 0.0
2016-Feb-02 15:34S 12°56' W 038°33'0 0.1
2016-Feb-02 14:33S 12°56' W 038°33'0 0.1
2016-Feb-02 13:34S 12°56' W 038°33'0 0.0
2016-Feb-02 12:32S 12°56' W 038°33'0 0.0
2016-Feb-02 11:32S 12°56' W 038°33'0 0.2
2016-Feb-02 10:33S 12°56' W 038°33'0 0.1
2016-Feb-02 09:31S 12°56' W 038°33'0 0.0
2016-Feb-02 08:31S 12°56' W 038°33'0 0.0
2016-Feb-02 07:25S 12°56' W 038°33'0 0.0
2016-Feb-02 06:31S 12°56' W 038°33'0 0.0
2016-Feb-02 05:31S 12°56' W 038°33'0 0.0
2016-Feb-02 04:31S 12°56' W 038°33'0 0.0
2016-Feb-02 03:31S 12°56' W 038°33'0 0.1
2016-Feb-02 02:31S 12°56' W 038°33'0 0.1
2016-Feb-02 01:13S 12°56' W 038°33'0 0.1
2016-Feb-02 00:34S 12°56' W 038°33'0 0.0
2016-Feb-01 23:33S 12°56' W 038°33'0 0.0
2016-Feb-01 22:32S 12°56' W 038°33'0 0.0
2016-Feb-01 21:32S 12°56' W 038°33'0 0.0
2016-Feb-01 20:34S 12°56' W 038°33'0 0.0
2016-Feb-01 19:31S 12°56' W 038°33'0 0.0
2016-Feb-01 18:33S 12°56' W 038°33'0 0.1
2016-Feb-01 17:33S 12°56' W 038°33'0 0.0
2016-Feb-01 16:33S 12°56' W 038°33'0 0.1
2016-Feb-01 15:33S 12°56' W 038°33'0 0.0
2016-Feb-01 14:32S 12°56' W 038°33'0 0.1
2016-Feb-01 13:32S 12°56' W 038°33'0 0.1
2016-Feb-01 12:32S 12°56' W 038°33'0 0.0
2016-Feb-01 11:33S 12°56' W 038°33'0 0.0
2016-Feb-01 10:34S 12°56' W 038°33'0 0.0
2016-Feb-01 09:33S 12°56' W 038°33'0 0.1
2016-Feb-01 08:33S 12°56' W 038°33'0 0.1
2016-Feb-01 07:32S 12°56' W 038°33'0 0.0
2016-Feb-01 06:29S 12°56' W 038°33'0 0.0
2016-Feb-01 05:32S 12°56' W 038°33'0 0.1
2016-Feb-01 04:32S 12°56' W 038°33'0 0.0
2016-Feb-01 03:32S 12°56' W 038°33'0 0.0
2016-Feb-01 02:32S 12°56' W 038°33'0 0.0
2016-Feb-01 01:32S 12°56' W 038°33'0 0.1
2016-Feb-01 00:32S 12°56' W 038°33'0 0.1
2016-Jan-31 23:31S 12°56' W 038°33'0 0.0
2016-Jan-31 22:31S 12°56' W 038°33'0 0.0
2016-Jan-31 21:31S 12°56' W 038°33'0 0.0
2016-Jan-31 20:33S 12°56' W 038°33'0 0.0
2016-Jan-31 19:33S 12°56' W 038°33'0 0.0
2016-Jan-31 18:33S 12°56' W 038°33'1 0.9
2016-Jan-31 17:34S 12°55' W 038°33'11 0.6
2016-Jan-30 23:10S 12°45' W 038°37'0 0.3
2016-Jan-30 22:33S 12°45' W 038°37'10 9.9
2016-Jan-30 21:33S 12°54' W 038°33'3 3.0
2016-Jan-30 20:33S 12°57' W 038°32'0 0.0
2016-Jan-30 19:33S 12°57' W 038°32'0 0.0
2016-Jan-30 18:30S 12°57' W 038°32'0 0.0
2016-Jan-30 17:33S 12°57' W 038°32'0 0.0
2016-Jan-30 16:33S 12°57' W 038°32'0 0.0
2016-Jan-30 15:33S 12°57' W 038°32'0 0.1
2016-Jan-30 14:33S 12°57' W 038°32'0 0.0
2016-Jan-30 13:33S 12°57' W 038°32'0 0.0
2016-Jan-30 12:33S 12°57' W 038°32'0 0.0
2016-Jan-30 11:33S 12°57' W 038°32'0 0.1
2016-Jan-30 10:33S 12°57' W 038°32'0 0.0
2016-Jan-30 09:33S 12°57' W 038°32'0 0.0
2016-Jan-30 08:33S 12°57' W 038°32'0 0.0
2016-Jan-30 07:33S 12°57' W 038°32'0 0.0
2016-Jan-30 06:33S 12°57' W 038°32'0 0.0
2016-Jan-30 05:33S 12°57' W 038°32'0 0.1
2016-Jan-30 04:33S 12°57' W 038°32'0 0.1
2016-Jan-30 03:30S 12°57' W 038°32'0 0.1
2016-Jan-30 02:33S 12°57' W 038°32'0 0.0
2016-Jan-30 01:33S 12°57' W 038°32'0 0.1
2016-Jan-30 00:24S 12°57' W 038°32'0 0.0
2016-Jan-29 23:30S 12°57' W 038°32'0 0.1
2016-Jan-29 22:33S 12°57' W 038°32'0 0.0
2016-Jan-29 21:33S 12°57' W 038°32'0 0.0
2016-Jan-29 20:33S 12°57' W 038°32'0 0.0
2016-Jan-29 19:33S 12°57' W 038°32'0 0.0
2016-Jan-29 18:33S 12°57' W 038°32'0 0.0
2016-Jan-29 17:33S 12°57' W 038°32'0 0.0
2016-Jan-29 16:33S 12°57' W 038°32'0 0.0
2016-Jan-29 15:33S 12°57' W 038°32'0 0.1
2016-Jan-29 14:30S 12°57' W 038°32'0 0.0
2016-Jan-29 13:34S 12°57' W 038°32'2 2.1
2016-Jan-29 12:26S 12°59' W 038°33'8 4.1
2016-Jan-29 10:33S 13°07' W 038°34'8 8.0
2016-Jan-29 09:33S 13°09' W 038°26'  
Track history (hours):
 
Tides and Currents Weather Stations Pressure Air Temp Water Temp Dewpoint Dewpoint Depression Visibility Wind Speed Wind Dir Waves Ship Positions

Ceylon

Last reported at 2016-Feb-07 08:22 UTC. Time now 2016-Apr-28 19:47 UTC.
Position S 13°10' W 038°28'.
Warning: this ship's position is months out of date.

Length 180 m; draft 9.1 m.

Type: Tanker. MMSI: 563847000.

Date/timePositionNaut miles runAvg speedWind from/ knotsBaromVisibWave heightAir tempDewpointWater temp
2016-Feb-07 08:22S 13°10' W 038°28'1010.1
2016-Feb-07 07:25S 13°01' W 038°34'910.0
2016-Feb-07 06:33S 12°53' W 038°34'9 8.2
2016-Feb-07 05:31S 12°45' W 038°37'0 0.0
2016-Feb-06 16:33S 12°45' W 038°38'6 6.3
2016-Feb-06 15:33S 12°50' W 038°34'7 7.0
2016-Feb-06 14:31S 12°57' W 038°32'0 0.0
2016-Feb-06 13:31S 12°57' W 038°32'0 0.1
2016-Feb-06 12:31S 12°57' W 038°32'0 0.1
2016-Feb-06 11:25S 12°58' W 038°32'0 0.1
2016-Feb-06 10:31S 12°58' W 038°32'0 0.0
2016-Feb-06 09:34S 12°58' W 038°32'0 0.0
2016-Feb-06 08:32S 12°58' W 038°32'0 0.0
2016-Feb-06 07:32S 12°58' W 038°32'0 0.0
2016-Feb-06 06:32S 12°58' W 038°32'0 0.1
2016-Feb-06 05:32S 12°57' W 038°32'0 0.1
2016-Feb-06 04:32S 12°57' W 038°32'0 0.0
2016-Feb-06 03:32S 12°57' W 038°32'0 0.0
2016-Feb-06 02:32S 12°57' W 038°32'0 0.0
2016-Feb-06 01:32S 12°57' W 038°32'0 0.0
2016-Feb-06 00:32S 12°57' W 038°32'0 0.1
2016-Feb-05 23:29S 12°57' W 038°32'0 0.1
2016-Feb-05 22:32S 12°58' W 038°32'0 0.0
2016-Feb-05 21:32S 12°58' W 038°32'0 0.0
2016-Feb-05 20:32S 12°58' W 038°32'0 0.0
2016-Feb-05 19:32S 12°58' W 038°32'0 0.1
2016-Feb-05 18:32S 12°58' W 038°32'0 0.1
2016-Feb-05 16:32S 12°57' W 038°32'0 0.1
2016-Feb-05 15:32S 12°57' W 038°32'0 0.0
2016-Feb-05 14:32S 12°57' W 038°32'0 0.0
2016-Feb-05 13:32S 12°57' W 038°32'0 0.1
2016-Feb-05 12:29S 12°57' W 038°32'0 0.1
2016-Feb-05 11:32S 12°58' W 038°32'0 0.1
2016-Feb-05 10:32S 12°58' W 038°32'5 4.7
2016-Feb-05 09:33S 12°53' W 038°32'6 6.5
2016-Feb-05 08:33S 12°47' W 038°30'0 0.0
2016-Feb-05 07:31S 12°47' W 038°30'0 0.0
2016-Feb-05 06:31S 12°47' W 038°30'0 0.0
2016-Feb-05 05:31S 12°47' W 038°30'0 0.0
2016-Feb-05 04:31S 12°47' W 038°30'0 0.0
2016-Feb-05 03:31S 12°47' W 038°30'0 0.0
2016-Feb-05 02:31S 12°47' W 038°30'0 0.0
2016-Feb-05 01:31S 12°47' W 038°30'0 0.0
2016-Feb-05 00:31S 12°47' W 038°30'0 0.0
2016-Feb-04 23:31S 12°47' W 038°30'0 0.0
2016-Feb-04 22:31S 12°47' W 038°30'0 0.0
2016-Feb-04 21:31S 12°47' W 038°30'0 0.0
2016-Feb-04 20:31S 12°47' W 038°30'0 0.0
2016-Feb-04 19:31S 12°47' W 038°30'0 0.0
2016-Feb-04 18:31S 12°47' W 038°30'0 0.0
2016-Feb-04 17:31S 12°47' W 038°30'0 0.0
2016-Feb-04 16:31S 12°47' W 038°30'0 0.0
2016-Feb-04 15:04S 12°47' W 038°30'0 0.0
2016-Feb-04 14:28S 12°47' W 038°30'0 0.0
2016-Feb-04 13:31S 12°47' W 038°30'0 0.0
2016-Feb-04 12:19S 12°47' W 038°30'0 0.0
2016-Feb-04 11:31S 12°47' W 038°30'0 0.0
2016-Feb-04 10:31S 12°47' W 038°30'0 0.0
2016-Feb-04 09:31S 12°47' W 038°30'0 0.0
2016-Feb-04 08:31S 12°47' W 038°30'0 0.0
2016-Feb-04 07:31S 12°47' W 038°30'0 0.0
2016-Feb-04 06:31S 12°47' W 038°30'0 0.0
2016-Feb-04 05:31S 12°47' W 038°30'0 0.0
2016-Feb-04 03:31S 12°47' W 038°30'0 0.0
2016-Feb-04 02:31S 12°47' W 038°30'0 0.0
2016-Feb-04 01:31S 12°47' W 038°30'0 0.0
2016-Feb-04 00:31S 12°47' W 038°30'0 0.0
2016-Feb-03 23:31S 12°47' W 038°30'0 0.0
2016-Feb-03 22:31S 12°47' W 038°30'0 0.0
2016-Feb-03 21:31S 12°47' W 038°30'0 0.0
2016-Feb-03 20:22S 12°47' W 038°30'0 0.0
2016-Feb-03 19:31S 12°47' W 038°30'0 0.0
2016-Feb-03 18:31S 12°47' W 038°30'0 0.0
2016-Feb-03 17:31S 12°47' W 038°30'0 0.0
2016-Feb-03 16:31S 12°47' W 038°30'0 0.0
2016-Feb-03 15:16S 12°47' W 038°30'0 0.0
2016-Feb-03 14:31S 12°47' W 038°30'0 0.0
2016-Feb-03 13:31S 12°47' W 038°30'0 0.0
2016-Feb-03 12:33S 12°47' W 038°30'9 8.3
2016-Feb-03 11:27S 12°56' W 038°33'0 0.4
2016-Feb-03 10:31S 12°56' W 038°33'0 0.1
2016-Feb-03 09:31S 12°56' W 038°33'0 0.0
2016-Feb-03 08:31S 12°56' W 038°33'0 0.0
2016-Feb-03 07:31S 12°56' W 038°33'0 0.0
2016-Feb-03 06:31S 12°56' W 038°33'0 0.0
2016-Feb-03 05:28S 12°56' W 038°33'0 0.0
2016-Feb-03 04:31S 12°56' W 038°33'0 0.1
2016-Feb-03 03:31S 12°56' W 038°33'0 0.1
2016-Feb-03 02:28S 12°56' W 038°33'0 0.1
2016-Feb-03 01:31S 12°56' W 038°33'0 0.0
2016-Feb-03 00:31S 12°56' W 038°33'0 0.0
2016-Feb-02 23:31S 12°56' W 038°33'0 0.0
2016-Feb-02 22:34S 12°56' W 038°33'0 0.0
2016-Feb-02 21:31S 12°56' W 038°33'0 0.0
2016-Feb-02 20:31S 12°56' W 038°33'0 0.0
2016-Feb-02 18:25S 12°56' W 038°33'0 0.1
2016-Feb-02 17:31S 12°56' W 038°33'0 0.0
2016-Feb-02 16:33S 12°56' W 038°33'0 0.0
2016-Feb-02 15:34S 12°56' W 038°33'0 0.1
2016-Feb-02 14:33S 12°56' W 038°33'0 0.1
2016-Feb-02 13:34S 12°56' W 038°33'0 0.0
2016-Feb-02 12:32S 12°56' W 038°33'0 0.0
2016-Feb-02 11:32S 12°56' W 038°33'0 0.2
2016-Feb-02 10:33S 12°56' W 038°33'0 0.1
2016-Feb-02 09:31S 12°56' W 038°33'0 0.0
2016-Feb-02 08:31S 12°56' W 038°33'0 0.0
2016-Feb-02 07:25S 12°56' W 038°33'0 0.0
2016-Feb-02 06:31S 12°56' W 038°33'0 0.0
2016-Feb-02 05:31S 12°56' W 038°33'0 0.0
2016-Feb-02 04:31S 12°56' W 038°33'0 0.0
2016-Feb-02 03:31S 12°56' W 038°33'0 0.1
2016-Feb-02 02:31S 12°56' W 038°33'0 0.1
2016-Feb-02 01:13S 12°56' W 038°33'0 0.1
2016-Feb-02 00:34S 12°56' W 038°33'0 0.0
2016-Feb-01 23:33S 12°56' W 038°33'0 0.0
2016-Feb-01 22:32S 12°56' W 038°33'0 0.0
2016-Feb-01 21:32S 12°56' W 038°33'0 0.0
2016-Feb-01 20:34S 12°56' W 038°33'0 0.0
2016-Feb-01 19:31S 12°56' W 038°33'0 0.0
2016-Feb-01 18:33S 12°56' W 038°33'0 0.1
2016-Feb-01 17:33S 12°56' W 038°33'0 0.0
2016-Feb-01 16:33S 12°56' W 038°33'0 0.1
2016-Feb-01 15:33S 12°56' W 038°33'0 0.0
2016-Feb-01 14:32S 12°56' W 038°33'0 0.1
2016-Feb-01 13:32S 12°56' W 038°33'0 0.1
2016-Feb-01 12:32S 12°56' W 038°33'0 0.0
2016-Feb-01 11:33S 12°56' W 038°33'0 0.0
2016-Feb-01 10:34S 12°56' W 038°33'0 0.0
2016-Feb-01 09:33S 12°56' W 038°33'0 0.1
2016-Feb-01 08:33S 12°56' W 038°33'0 0.1
2016-Feb-01 07:32S 12°56' W 038°33'0 0.0
2016-Feb-01 06:29S 12°56' W 038°33'0 0.0
2016-Feb-01 05:32S 12°56' W 038°33'0 0.1
2016-Feb-01 04:32S 12°56' W 038°33'0 0.0
2016-Feb-01 03:32S 12°56' W 038°33'0 0.0
2016-Feb-01 02:32S 12°56' W 038°33'0 0.0
2016-Feb-01 01:32S 12°56' W 038°33'0 0.1
2016-Feb-01 00:32S 12°56' W 038°33'0 0.1
2016-Jan-31 23:31S 12°56' W 038°33'0 0.0
2016-Jan-31 22:31S 12°56' W 038°33'0 0.0
2016-Jan-31 21:31S 12°56' W 038°33'0 0.0
2016-Jan-31 20:33S 12°56' W 038°33'0 0.0
2016-Jan-31 19:33S 12°56' W 038°33'0 0.0
2016-Jan-31 18:33S 12°56' W 038°33'1 0.9
2016-Jan-31 17:34S 12°55' W 038°33'11 0.6
2016-Jan-30 23:10S 12°45' W 038°37'0 0.3
2016-Jan-30 22:33S 12°45' W 038°37'10 9.9
2016-Jan-30 21:33S 12°54' W 038°33'3 3.0
2016-Jan-30 20:33S 12°57' W 038°32'0 0.0
2016-Jan-30 19:33S 12°57' W 038°32'0 0.0
2016-Jan-30 18:30S 12°57' W 038°32'0 0.0
2016-Jan-30 17:33S 12°57' W 038°32'0 0.0
2016-Jan-30 16:33S 12°57' W 038°32'0 0.0
2016-Jan-30 15:33S 12°57' W 038°32'0 0.1
2016-Jan-30 14:33S 12°57' W 038°32'0 0.0
2016-Jan-30 13:33S 12°57' W 038°32'0 0.0
2016-Jan-30 12:33S 12°57' W 038°32'0 0.0
2016-Jan-30 11:33S 12°57' W 038°32'0 0.1
2016-Jan-30 10:33S 12°57' W 038°32'0 0.0
2016-Jan-30 09:33S 12°57' W 038°32'0 0.0
2016-Jan-30 08:33S 12°57' W 038°32'0 0.0
2016-Jan-30 07:33S 12°57' W 038°32'0 0.0
2016-Jan-30 06:33S 12°57' W 038°32'0 0.0
2016-Jan-30 05:33S 12°57' W 038°32'0 0.1
2016-Jan-30 04:33S 12°57' W 038°32'0 0.1
2016-Jan-30 03:30S 12°57' W 038°32'0 0.1
2016-Jan-30 02:33S 12°57' W 038°32'0 0.0
2016-Jan-30 01:33S 12°57' W 038°32'0 0.1
2016-Jan-30 00:24S 12°57' W 038°32'0 0.0
2016-Jan-29 23:30S 12°57' W 038°32'0 0.1
2016-Jan-29 22:33S 12°57' W 038°32'0 0.0
2016-Jan-29 21:33S 12°57' W 038°32'0 0.0
2016-Jan-29 20:33S 12°57' W 038°32'0 0.0
2016-Jan-29 19:33S 12°57' W 038°32'0 0.0
2016-Jan-29 18:33S 12°57' W 038°32'0 0.0
2016-Jan-29 17:33S 12°57' W 038°32'0 0.0
2016-Jan-29 16:33S 12°57' W 038°32'0 0.0
2016-Jan-29 15:33S 12°57' W 038°32'0 0.1
2016-Jan-29 14:30S 12°57' W 038°32'0 0.0
2016-Jan-29 13:34S 12°57' W 038°32'2 2.1
2016-Jan-29 12:26S 12°59' W 038°33'8 4.1
2016-Jan-29 10:33S 13°07' W 038°34'8 8.0
2016-Jan-29 09:33S 13°09' W 038°26'  

Dump ship's entire track history